RYR48DR EDMO-LOWI
Flight info
| Callsign | RYR48DR |
|---|---|
| Flight time | 0h 22m |
| Altitude | 14000 |
| Route | ATMAX Y740 XEBIX |
| Aircraft | B738/M-SDE2E3FGHIRWXY/LB1 |
Departure
| Time | 2026-04-15 15:01 |
|---|---|
| Airport | Oberpfaffenhofen Airport (EDMO) |
Arrival
| Time | 2026-04-15 15:24 |
|---|---|
| Airport | Innsbruck Airport (LOWI) |
| Time | Latitude | Longitude | Altitude | Speed | Heading |
|---|---|---|---|---|---|
| 2026-04-15 15:00 | 48.07432 | 11.27345 | 1948 ft | 0 kts | 42° |
| 2026-04-15 15:00 | 48.07433 | 11.27346 | 1948 ft | 0 kts | 42° |
| 2026-04-15 15:00 | 48.07470 | 11.27397 | 1947 ft | 23 kts | 43° |
| 2026-04-15 15:00 | 48.07823 | 11.27877 | 1924 ft | 112 kts | 43° |
| 2026-04-15 15:01 | 48.08606 | 11.28913 | 1944 ft | 180 kts | 41° |
| 2026-04-15 15:01 | 48.09533 | 11.30147 | 2870 ft | 182 kts | 44° |
| 2026-04-15 15:01 | 48.10437 | 11.31391 | 3940 ft | 175 kts | 44° |
| 2026-04-15 15:01 | 48.11342 | 11.32620 | 4517 ft | 190 kts | 42° |
| 2026-04-15 15:02 | 48.12418 | 11.34058 | 4879 ft | 221 kts | 41° |
| 2026-04-15 15:02 | 48.13702 | 11.35425 | 5606 ft | 233 kts | 22° |
| 2026-04-15 15:02 | 48.15321 | 11.35749 | 6236 ft | 246 kts | 346° |
| 2026-04-15 15:02 | 48.16825 | 11.34531 | 6880 ft | 257 kts | 310° |
| 2026-04-15 15:03 | 48.17625 | 11.32131 | 7560 ft | 267 kts | 277° |
| 2026-04-15 15:03 | 48.17462 | 11.29390 | 8350 ft | 274 kts | 251° |
| 2026-04-15 15:03 | 48.16565 | 11.26867 | 8900 ft | 276 kts | 235° |
| 2026-04-15 15:03 | 48.15415 | 11.24573 | 9443 ft | 280 kts | 232° |
| 2026-04-15 15:04 | 48.14208 | 11.22298 | 9988 ft | 281 kts | 232° |
| 2026-04-15 15:04 | 48.12959 | 11.20045 | 10536 ft | 284 kts | 228° |
| 2026-04-15 15:04 | 48.11560 | 11.17946 | 11081 ft | 288 kts | 224° |
| 2026-04-15 15:04 | 48.10052 | 11.15878 | 11644 ft | 299 kts | 223° |
| 2026-04-15 15:05 | 48.08519 | 11.13806 | 12181 ft | 305 kts | 223° |
| 2026-04-15 15:05 | 48.06952 | 11.11683 | 12723 ft | 307 kts | 223° |
| 2026-04-15 15:05 | 48.05351 | 11.09508 | 13274 ft | 311 kts | 223° |
| 2026-04-15 15:05 | 48.03755 | 11.07330 | 13811 ft | 313 kts | 223° |
| 2026-04-15 15:06 | 48.00365 | 11.02694 | 14168 ft | 355 kts | 223° |
| 2026-04-15 15:06 | 47.98498 | 11.00135 | 14163 ft | 366 kts | 223° |
| 2026-04-15 15:06 | 47.96601 | 10.97537 | 14164 ft | 378 kts | 223° |
| 2026-04-15 15:07 | 47.94652 | 10.94871 | 14156 ft | 381 kts | 223° |
| 2026-04-15 15:07 | 47.92725 | 10.92239 | 14154 ft | 381 kts | 223° |
| 2026-04-15 15:07 | 47.90763 | 10.89560 | 14149 ft | 382 kts | 223° |
| 2026-04-15 15:07 | 47.88814 | 10.86903 | 14147 ft | 382 kts | 223° |
| 2026-04-15 15:08 | 47.86853 | 10.84234 | 14148 ft | 383 kts | 223° |
| 2026-04-15 15:08 | 47.84882 | 10.81558 | 14149 ft | 383 kts | 223° |
| 2026-04-15 15:08 | 47.82892 | 10.78861 | 14145 ft | 384 kts | 223° |
| 2026-04-15 15:08 | 47.80921 | 10.76199 | 14143 ft | 384 kts | 223° |
| 2026-04-15 15:09 | 47.78941 | 10.73607 | 14143 ft | 384 kts | 220° |
| 2026-04-15 15:09 | 47.76815 | 10.71200 | 14140 ft | 384 kts | 217° |
| 2026-04-15 15:09 | 47.74628 | 10.68910 | 14137 ft | 385 kts | 216° |
| 2026-04-15 15:09 | 47.72415 | 10.66652 | 14137 ft | 384 kts | 215° |
| 2026-04-15 15:10 | 47.70192 | 10.64530 | 14158 ft | 385 kts | 210° |
| 2026-04-15 15:10 | 47.67804 | 10.62721 | 14154 ft | 385 kts | 206° |
| 2026-04-15 15:10 | 47.65339 | 10.61095 | 14128 ft | 385 kts | 204° |
| 2026-04-15 15:10 | 47.62869 | 10.59630 | 14159 ft | 386 kts | 202° |
| 2026-04-15 15:11 | 47.60354 | 10.58257 | 14143 ft | 386 kts | 201° |
| 2026-04-15 15:11 | 47.57834 | 10.56952 | 14163 ft | 387 kts | 200° |
| 2026-04-15 15:11 | 47.55278 | 10.55661 | 14171 ft | 387 kts | 200° |
| 2026-04-15 15:11 | 47.52719 | 10.54382 | 14168 ft | 387 kts | 200° |
| 2026-04-15 15:12 | 47.50170 | 10.53107 | 14179 ft | 388 kts | 200° |
| 2026-04-15 15:12 | 47.47619 | 10.51828 | 14157 ft | 387 kts | 200° |
| 2026-04-15 15:12 | 47.45100 | 10.50561 | 14175 ft | 379 kts | 200° |
| 2026-04-15 15:12 | 47.42638 | 10.49408 | 14186 ft | 358 kts | 195° |
| 2026-04-15 15:13 | 47.40255 | 10.48829 | 14173 ft | 341 kts | 182° |
| 2026-04-15 15:13 | 47.37970 | 10.49404 | 14185 ft | 334 kts | 159° |
| 2026-04-15 15:13 | 47.35893 | 10.50919 | 14185 ft | 341 kts | 152° |
| 2026-04-15 15:13 | 47.33747 | 10.52721 | 13935 ft | 358 kts | 150° |
| 2026-04-15 15:14 | 47.31693 | 10.54666 | 13506 ft | 354 kts | 142° |
| 2026-04-15 15:14 | 47.29950 | 10.57196 | 13183 ft | 345 kts | 128° |
| 2026-04-15 15:14 | 47.28894 | 10.60244 | 13173 ft | 326 kts | 104° |
| 2026-04-15 15:14 | 47.28717 | 10.63482 | 13188 ft | 317 kts | 86° |
| 2026-04-15 15:15 | 47.28877 | 10.66696 | 13182 ft | 311 kts | 85° |
| 2026-04-15 15:15 | 47.29042 | 10.69782 | 13043 ft | 301 kts | 85° |
| 2026-04-15 15:15 | 47.29192 | 10.72871 | 12295 ft | 309 kts | 85° |
| 2026-04-15 15:15 | 47.29329 | 10.76030 | 11476 ft | 315 kts | 86° |
| 2026-04-15 15:16 | 47.29458 | 10.79215 | 10911 ft | 311 kts | 86° |
| 2026-04-15 15:16 | 47.29581 | 10.82362 | 10456 ft | 303 kts | 86° |
| 2026-04-15 15:16 | 47.29699 | 10.85417 | 9905 ft | 298 kts | 86° |
| 2026-04-15 15:16 | 47.29815 | 10.88378 | 9320 ft | 278 kts | 86° |
| 2026-04-15 15:17 | 47.29923 | 10.91079 | 8955 ft | 251 kts | 86° |
| 2026-04-15 15:17 | 47.30018 | 10.93497 | 8709 ft | 226 kts | 86° |
| 2026-04-15 15:17 | 47.30106 | 10.95722 | 8437 ft | 211 kts | 86° |
| 2026-04-15 15:17 | 47.30185 | 10.97798 | 8250 ft | 198 kts | 86° |
| 2026-04-15 15:18 | 47.30260 | 10.99792 | 7807 ft | 194 kts | 86° |
| 2026-04-15 15:18 | 47.30333 | 11.01724 | 7457 ft | 186 kts | 86° |
| 2026-04-15 15:18 | 47.30405 | 11.03601 | 7162 ft | 183 kts | 86° |
| 2026-04-15 15:18 | 47.30469 | 11.05407 | 6943 ft | 172 kts | 86° |
| 2026-04-15 15:19 | 47.30527 | 11.07153 | 6659 ft | 170 kts | 86° |
| 2026-04-15 15:19 | 47.30513 | 11.08877 | 6400 ft | 163 kts | 99° |
| 2026-04-15 15:19 | 47.30112 | 11.10399 | 6286 ft | 162 kts | 115° |
| 2026-04-15 15:19 | 47.29622 | 11.11891 | 6020 ft | 161 kts | 113° |
| 2026-04-15 15:20 | 47.29179 | 11.13400 | 5698 ft | 159 kts | 112° |
| 2026-04-15 15:20 | 47.28751 | 11.14877 | 5398 ft | 157 kts | 112° |
| 2026-04-15 15:20 | 47.28326 | 11.16356 | 5103 ft | 157 kts | 111° |
| 2026-04-15 15:20 | 47.27904 | 11.17824 | 4805 ft | 156 kts | 112° |
| 2026-04-15 15:21 | 47.27481 | 11.19270 | 4510 ft | 155 kts | 112° |
| 2026-04-15 15:21 | 47.27060 | 11.20722 | 4222 ft | 155 kts | 112° |
| 2026-04-15 15:21 | 47.26643 | 11.22161 | 3927 ft | 153 kts | 111° |
| 2026-04-15 15:21 | 47.26224 | 11.23597 | 3630 ft | 152 kts | 111° |
| 2026-04-15 15:22 | 47.25805 | 11.25020 | 3335 ft | 151 kts | 111° |
| 2026-04-15 15:22 | 47.25400 | 11.26433 | 3024 ft | 150 kts | 108° |
| 2026-04-15 15:22 | 47.25320 | 11.27928 | 2703 ft | 146 kts | 77° |
| 2026-04-15 15:22 | 47.25543 | 11.29374 | 2510 ft | 146 kts | 78° |
| 2026-04-15 15:23 | 47.25692 | 11.30841 | 2317 ft | 145 kts | 84° |
| 2026-04-15 15:23 | 47.25778 | 11.32311 | 2114 ft | 142 kts | 79° |
| 2026-04-15 15:23 | 47.25944 | 11.33726 | 1936 ft | 137 kts | 80° |
| 2026-04-15 15:23 | 47.26066 | 11.34792 | 1912 ft | 67 kts | 77° |
| 2026-04-15 15:24 | 47.26104 | 11.35165 | 1909 ft | 24 kts | 97° |
| 2026-04-15 15:24 | 47.26043 | 11.35256 | 1909 ft | 12 kts | 171° |
| 2026-04-15 15:24 | 47.25959 | 11.35279 | 1909 ft | 12 kts | 170° |
| 2026-04-15 15:24 | 47.25880 | 11.35302 | 1909 ft | 10 kts | 169° |
| 2026-04-15 15:25 | 47.25861 | 11.35307 | 1909 ft | 1 kts | 172° |
| 2026-04-15 15:25 | 47.25851 | 11.35308 | 1909 ft | 1 kts | 174° |
| 2026-04-15 15:25 | 47.25850 | 11.35308 | 1909 ft | 0 kts | 174° |